Latest Weather Observations for Camooweal

IDD60801

Issued at 10:21 pm CST Wednesday 12 August 2020 (issued every 10 minutes, with the page automatically refreshed every 10 minutes)

About weather observations | Map of weather stations | Latest weather observations for NT | Other Formats
Station Details ID: 037010 Name: CAMOOWEAL TOWNSHIP Lat: -19.92 Lon: 138.12 Height: 231.2 m
Data from the previous 72 hours. | See also: Recent months at Camooweal
Date/Time
CST
Temp
°C
App
Temp
°C
Dew
Point
°C
Rel
Hum
%
Delta-T
°C
Wind Press
QNH
hPa
Press
MSL
hPa
Rain since
9am
mm
Dir  Spd
km/h
Gust
km/h
Spd
kts
Gust
kts
12/10:00pm 22.7 21.3 3.8 29 9.3 CALM 0 0 0 0 1013.6 1012.9 0.0
12/09:30pm 22.3 20.7 2.4 27 9.5 CALM 0 0 0 0 1013.6 1012.9 0.0
12/09:00pm 23.4 21.9 2.8 26 10.0 CALM 0 0 0 0 1013.7 1013.0 0.0
12/08:30pm 24.0 22.6 3.3 26 10.2 CALM 0 0 0 0 1013.5 1012.8 0.0
12/08:00pm 24.5 21.9 3.2 25 10.5 W 6 7 3 4 1013.2 1012.5 0.0
12/07:30pm 25.5 22.8 2.9 23 11.1 WSW 6 6 3 3 1012.7 1012.0 0.0
12/07:00pm 27.2 24.6 3.0 21 12.1 WNW 6 7 3 4 1012.3 1011.6 0.0
12/06:30pm 28.8 26.1 3.6 20 12.8 WNW 7 11 4 6 1012.0 1011.3 0.0
12/06:00pm 30.3 27.7 3.4 18 13.8 W 6 7 3 4 1011.8 1011.1 0.0
12/05:30pm 31.9 27.9 3.0 16 14.9 WNW 13 22 7 12 1011.7 1011.0 0.0
12/05:00pm 33.1 29.4 2.1 14 15.8 W 11 17 6 9 1011.6 1010.9 0.0
12/04:30pm 33.4 29.3 2.3 14 16.0 WNW 13 20 7 11 1011.5 1010.8 0.0
12/04:00pm 33.5 29.4 2.4 14 16.0 WNW 13 20 7 11 1011.5 1010.8 0.0
12/03:30pm 34.1 30.1 2.8 14 16.3 W 13 20 7 11 1011.8 1011.1 0.0
12/03:00pm 33.6 29.1 2.4 14 16.0 WNW 15 28 8 15 1011.9 1011.2 0.0
12/02:30pm 33.5 28.8 3.3 15 15.8 W 17 30 9 16 1012.4 1011.7 0.0
12/02:00pm 33.9 29.5 2.7 14 16.1 W 15 26 8 14 1012.8 1012.1 0.0
12/01:30pm 32.9 28.7 1.9 14 15.7 W 13 22 7 12 1013.3 1012.6 0.0
12/01:00pm 32.1 28.6 1.3 14 15.4 SSW 9 15 5 8 1013.9 1013.3 0.0
12/12:30pm 31.7 28.2 1.0 14 15.2 WNW 9 15 5 8 1014.4 1013.8 0.0
12/12:00pm 30.8 26.9 1.2 15 14.7 WNW 11 20 6 11 1015.0 1014.4 0.0
12/11:30am 30.1 26.1 0.6 15 14.4 W 11 20 6 11 1015.6 1014.9 0.0
12/11:00am 29.4 26.0 1.8 17 13.7 NNW 9 15 5 8 1016.1 1015.4 0.0
12/10:30am 27.8 24.6 0.5 17 13.1 NW 7 13 4 7 1016.7 1016.0 0.0
12/10:00am 26.4 22.5 0.9 19 12.2 WNW 11 20 6 11 1016.8 1016.1 0.0
12/09:30am 25.3 20.8 2.1 22 11.2 NNW 15 22 8 12 1016.5 1015.8 0.0
12/09:00am 23.0 18.4 1.4 24 10.2 NNW 15 20 8 11 1016.2 1015.5 0.0
12/08:30am 20.9 16.3 1.7 28 8.9 N 15 20 8 11 1016.2 1015.5 0.0
12/08:00am 18.5 14.5 0.6 30 8.0 N 11 17 6 9 1015.9 1015.2 0.0
12/07:30am 16.4 12.7 -0.3 32 7.2 NNE 9 13 5 7 1015.6 1014.9 0.0
12/07:00am 15.4 11.6 -0.4 34 6.7 NNE 9 13 5 7 1015.4 1014.7 0.0
12/06:30am 15.4 10.8 -0.8 33 6.8 NNE 13 17 7 9 1015.2 1014.5 0.0
12/06:00am 15.8 11.5 -1.3 31 7.2 NNE 11 13 6 7 1014.7 1014.1 0.0
12/05:30am 16.3 11.7 -1.3 30 7.4 NNE 13 17 7 9 1014.3 1013.7 0.0
12/05:00am 16.5 11.8 -1.6 29 7.6 NNE 13 20 7 11 1014.1 1013.5 0.0
12/04:30am 16.9 12.2 -1.7 28 7.8 N 13 19 7 10 1013.8 1013.1 0.0
12/04:00am 17.1 12.4 -2.0 27 8.0 NNE 13 17 7 9 1013.6 1012.9 0.0
12/03:30am 17.4 12.7 -1.8 27 8.1 NNE 13 17 7 9 1013.5 1012.8 0.0
12/03:00am 18.0 13.2 -2.3 25 8.5 NNE 13 15 7 8 1013.5 1012.8 0.0
12/02:30am 18.5 13.8 -1.9 25 8.7 NNE 13 17 7 9 1013.7 1013.0 0.0
12/02:00am 17.9 13.9 -1.9 26 8.4 NNE 9 13 5 7 1013.9 1013.3 0.0
12/01:30am 18.6 14.3 -1.3 26 8.6 NNE 11 13 6 7 1014.0 1013.4 0.0
12/01:00am 16.2 12.6 -2.3 28 7.6 N 7 9 4 5 1014.4 1013.8 0.0
12/12:30am 16.6 14.3 -2.0 28 7.7 CALM 0 0 0 0 1014.5 1013.9 0.0
12/12:00am 16.4 12.9 -2.6 27 7.8 N 6 7 3 4 1014.5 1013.9 0.0
 
Date/Time
CST
Temp
°C
App
Temp
°C
Dew
Point
°C
Rel
Hum
%
Delta-T
°C
Wind Press
QNH
hPa
Press
MSL
hPa
Rain since
9am
mm
Dir  Spd
km/h
Gust
km/h
Spd
kts
Gust
kts
11/11:30pm 18.2 14.6 -2.1 25 8.6 N 7 9 4 5 1014.6 1014.0 0.0
11/11:00pm 19.6 15.6 -2.1 23 9.3 N 9 13 5 7 1014.4 1013.8 0.0
11/10:30pm 19.9 15.9 -2.4 22 9.5 N 9 11 5 6 1014.4 1013.8 0.0
11/10:00pm 20.7 16.3 -2.4 21 9.9 NNE 11 15 6 8 1014.2 1013.6 0.0
11/09:30pm 21.5 16.4 -1.7 21 10.2 NNE 15 17 8 9 1014.2 1013.6 0.0
11/09:00pm 22.2 18.3 -1.8 20 10.6 N 9 11 5 6 1014.3 1013.7 0.0
11/08:30pm 23.0 19.4 -1.8 19 11.0 N 7 11 4 6 1014.2 1013.6 0.0
11/08:00pm 23.9 20.0 -1.8 18 11.5 N 9 11 5 6 1014.0 1013.4 0.0
11/07:30pm 24.1 19.8 -1.7 18 11.5 NNE 11 13 6 7 1013.7 1013.0 0.0
11/07:00pm 24.0 20.4 -1.8 18 11.5 N 7 9 4 5 1013.3 1012.6 0.0
11/06:30pm 25.7 22.1 -2.0 16 12.5 NNW 7 9 4 5 1013.0 1012.3 0.0
11/06:00pm 27.7 24.1 -2.2 14 13.6 NNW 7 11 4 6 1012.8 1012.1 0.0
11/05:30pm 29.0 25.0 -2.2 13 14.4 N 9 15 5 8 1012.6 1011.9 0.0
11/05:00pm 30.0 25.6 -2.5 12 15.0 NNW 11 17 6 9 1012.4 1011.7 0.0
11/04:30pm 30.0 25.2 -2.5 12 15.0 N 13 19 7 10 1012.4 1011.7 0.0
11/04:00pm 29.7 24.5 -2.7 12 14.9 N 15 26 8 14 1012.5 1011.8 0.0
11/03:30pm 30.4 26.6 -1.1 13 15.0 NNW 9 17 5 9 1012.6 1011.9 0.0
11/03:00pm 29.7 25.3 -2.7 12 14.9 NNW 11 20 6 11 1012.8 1012.1 0.0
11/02:30pm 29.5 24.8 -1.8 13 14.6 NNW 13 20 7 11 1013.0 1012.3 0.0
11/02:00pm 28.9 24.0 -3.3 12 14.6 N 13 22 7 12 1013.4 1012.7 0.0
11/01:30pm 28.7 23.9 -2.4 13 14.3 N 13 20 7 11 1013.9 1013.3 0.0
11/01:00pm 27.9 23.0 -3.0 13 13.9 NNE 13 22 7 12 1014.4 1013.8 0.0
11/12:30pm 26.8 21.7 -2.0 15 13.1 NNE 15 20 8 11 1014.9 1014.3 0.0
11/12:00pm 26.7 22.1 -1.2 16 12.9 NNE 13 20 7 11 1015.7 1015.0 0.0
11/11:30am 25.8 22.1 -0.3 18 12.1 NNE 9 17 5 9 1016.2 1015.5 0.0
11/11:00am 24.3 19.8 -0.1 20 11.3 NNE 13 22 7 12 1016.9 1016.2 0.0
11/10:30am 23.1 18.3 0.2 22 10.5 NE 15 22 8 12 1017.5 1016.8 0.0
11/10:00am 22.5 17.8 0.9 24 10.0 NE 15 20 8 11 1017.7 1017.1 0.0
11/09:30am 21.5 16.5 1.2 26 9.4 NE 17 22 9 12 1017.7 1017.1 0.0
11/09:00am 20.0 15.8 1.4 29 8.6 ENE 13 22 7 12 1017.4 1016.7 0.0
11/08:30am 17.1 15.2 0.3 32 7.4 CALM 0 0 0 0 1017.5 1016.8 0.0
11/08:00am 13.1 10.9 -1.2 37 5.8 CALM 0 0 0 0 1017.5 1016.8 0.0
11/07:30am 9.8 7.5 -2.2 43 4.6 CALM 0 0 0 0 1017.3 1016.6 0.0
11/07:00am 8.2 6.0 -1.9 49 3.9 CALM 0 0 0 0 1017.2 1016.5 0.0
11/06:30am 8.5 6.3 -1.3 50 3.8 CALM 0 0 0 0 1016.9 1016.2 0.0
11/06:00am 8.1 5.8 -2.5 47 4.0 CALM 0 0 0 0 1016.6 1015.9 0.0
11/05:30am 8.4 6.4 -0.4 54 3.5 CALM 0 0 0 0 1016.4 1015.7 0.0
11/05:00am 8.7 6.4 -2.0 47 4.1 CALM 0 0 0 0 1015.9 1015.2 0.0
11/04:30am 8.3 5.9 -3.5 43 4.3 CALM 0 0 0 0 1015.8 1015.1 0.0
11/04:00am 9.2 5.6 -4.0 39 4.8 N 6 7 3 4 1015.7 1015.0 0.0
11/03:30am 10.4 7.1 -1.6 43 4.7 N 6 7 3 4 1015.7 1015.0 0.0
11/03:00am 10.6 7.3 -1.4 43 4.8 N 6 6 3 3 1015.8 1015.1 0.0
11/02:30am 11.2 8.3 -1.2 42 5.0 ENE 4 6 2 3 1015.8 1015.1 0.0
11/02:00am 11.3 9.1 -1.8 40 5.2 CALM 0 0 0 0 1016.0 1015.3 0.0
11/01:30am 11.1 7.5 -2.3 39 5.2 SSW 7 7 4 4 1016.2 1015.5 0.0
11/01:00am 11.4 8.0 -0.4 44 4.8 SSW 7 7 4 4 1016.3 1015.6 0.0
11/12:30am 11.8 8.9 -1.3 40 5.3 SSE 4 6 2 3 1016.5 1015.8 0.0
11/12:00am 12.2 9.0 -3.6 33 6.1 SSE 4 6 2 3 1016.7 1016.0 0.0
 
Date/Time
CST
Temp
°C
App
Temp
°C
Dew
Point
°C
Rel
Hum
%
Delta-T
°C
Wind Press
QNH
hPa
Press
MSL
hPa
Rain since
9am
mm
Dir  Spd
km/h
Gust
km/h
Spd
kts
Gust
kts
10/11:30pm 13.6 10.1 -2.8 32 6.5 SE 6 7 3 4 1016.7 1016.0 0.0
10/11:00pm 14.0 11.8 -1.6 34 6.4 CALM 0 2 0 1 1016.9 1016.2 0.0
10/10:30pm 14.3 10.8 -3.0 30 6.9 SSE 6 7 3 4 1016.7 1016.0 0.0
10/10:00pm 15.5 11.9 -2.4 29 7.3 SE 7 9 4 5 1016.8 1016.1 0.0
10/09:30pm 15.9 11.8 -3.0 27 7.6 SSE 9 11 5 6 1016.7 1016.0 0.0
10/09:00pm 16.9 12.5 -2.7 26 8.1 SSE 11 13 6 7 1016.7 1016.0 0.0
10/08:30pm 16.3 11.7 -3.7 25 8.0 S 11 13 6 7 1016.8 1016.1 0.0
10/08:00pm 16.8 12.6 -3.9 24 8.3 S 9 11 5 6 1016.6 1015.9 0.0
10/07:30pm 18.1 14.0 -2.8 24 8.7 SW 9 9 5 5 1016.4 1015.7 0.0
10/07:00pm 18.6 14.1 -3.5 22 9.1 S 11 13 6 7 1015.7 1015.0 0.0
10/06:30pm 20.3 15.6 -4.8 18 10.2 S 11 13 6 7 1015.4 1014.7 0.0
10/06:00pm 22.4 17.7 -5.5 15 11.4 SE 11 15 6 8 1015.4 1014.7 0.0
10/05:30pm 23.7 18.6 -5.3 14 12.1 SE 13 17 7 9 1015.3 1014.6 0.0
10/05:00pm 24.4 19.2 -5.8 13 12.5 SE 13 19 7 10 1015.4 1014.7 0.0
10/04:30pm 24.3 18.9 -4.9 14 12.3 SSE 15 22 8 12 1015.4 1014.7 0.0
10/04:00pm 24.7 19.7 -4.6 14 12.5 SE 13 17 7 9 1015.4 1014.7 0.0
10/03:30pm 24.6 19.6 -4.6 14 12.4 SSE 13 20 7 11 1015.6 1014.9 0.0
10/03:00pm 24.7 20.0 -4.6 14 12.5 SSE 11 20 6 11 1015.9 1015.2 0.0
10/02:30pm 24.3 19.4 -3.1 16 12.0 S 13 20 7 11 1016.2 1015.5 0.0
10/02:00pm 24.1 19.6 -3.3 16 11.9 SSE 11 22 6 12 1016.5 1015.8 0.0
10/01:30pm 23.8 19.0 -2.7 17 11.6 ESE 13 28 7 15 1017.1 1016.4 0.0
10/01:00pm 23.2 18.4 -2.4 18 11.2 SSE 13 24 7 13 1017.7 1017.1 0.0
10/12:30pm 23.4 18.3 -2.2 18 11.3 SSE 15 26 8 14 1018.2 1017.6 0.0
10/12:00pm 22.2 16.8 -1.1 21 10.4 SE 17 26 9 14 1019.0 1018.4 0.0
10/11:30am 21.4 15.9 -1.8 21 10.1 ESE 17 24 9 13 1019.5 1018.9 0.0
10/11:00am 20.9 15.5 -1.0 23 9.7 SSE 17 24 9 13 1020.2 1019.5 0.0
10/10:30am 20.6 15.4 -0.1 25 9.3 SE 17 26 9 14 1020.5 1019.8 0.0
10/10:00am 19.4 14.6 -0.1 27 8.7 SE 15 22 8 12 1020.7 1020.0 0.0
10/09:30am 18.8 13.2 -0.1 28 8.3 SE 19 24 10 13 1020.6 1019.9 0.0
10/09:00am 17.4 11.9 0.6 32 7.4 ESE 19 26 10 14 1020.6 1019.9 0.0
10/08:30am 14.8 10.7 -0.5 35 6.4 E 11 17 6 9 1020.5 1019.8 0.0
10/08:00am 11.6 9.2 -0.5 43 5.0 NE 2 6 1 3 1020.5 1019.8 0.0
10/07:30am 7.5 5.2 -2.0 51 3.6 CALM 0 0 0 0 1020.3 1019.6 0.0
10/07:00am 6.6 3.3 -1.5 56 3.1 SW 6 6 3 3 1020.1 1019.4 0.0
10/06:30am 6.9 3.5 -2.0 53 3.3 WSW 6 6 3 3 1019.5 1018.9 0.0
10/06:00am 7.4 4.1 -1.5 53 3.4 SW 6 7 3 4 1019.0 1018.4 0.0
10/05:30am 7.8 4.3 -1.7 51 3.6 SSW 7 9 4 5 1018.8 1018.2 0.0
10/05:00am 8.7 5.4 -0.9 51 3.8 SE 6 7 3 4 1018.7 1018.1 0.0
10/04:30am 9.2 5.8 -0.9 49 4.0 SE 7 7 4 4 1018.7 1018.1 0.0
10/04:00am 9.8 6.5 -1.0 47 4.3 SE 6 6 3 3 1018.5 1017.9 0.0
10/03:30am 10.3 6.8 -1.7 43 4.7 SE 7 9 4 5 1018.3 1017.7 0.0
10/03:00am 11.0 7.5 -1.4 42 4.9 E 7 9 4 5 1018.2 1017.6 0.0
10/02:30am 10.9 7.0 -1.8 41 5.0 SE 9 11 5 6 1018.1 1017.5 0.0
10/02:00am 12.3 7.6 -1.6 38 5.6 SE 13 17 7 9 1018.2 1017.6 0.0
10/01:30am 12.7 8.1 -1.2 38 5.6 SE 13 17 7 9 1018.4 1017.8 0.0
10/01:00am 12.7 8.0 -2.0 36 5.9 SE 13 17 7 9 1018.6 1018.0 0.0
10/12:30am 13.3 8.2 -1.8 35 6.1 SE 15 17 8 9 1018.6 1018.0 0.0
10/12:00am 13.0 8.6 -2.5 34 6.2 SSE 11 13 6 7 1018.9 1018.3 0.0
 
Date/Time
CST
Temp
°C
App
Temp
°C
Dew
Point
°C
Rel
Hum
%
Delta-T
°C
Wind Press
QNH
hPa
Press
MSL
hPa
Rain since
9am
mm
Dir  Spd
km/h
Gust
km/h
Spd
kts
Gust
kts
09/11:30pm 14.4 9.7 -2.1 32 6.7 SSE 13 17 7 9 1018.9 1018.3 0.0
09/11:00pm 15.2 10.1 -1.8 31 7.0 SSE 15 19 8 10 1019.1 1018.5 0.0
09/10:30pm 16.0 10.1 -2.0 29 7.4 SSE 19 26 10 14 1019.3 1018.7 0.0
09/10:00pm 16.6 10.7 -2.0 28 7.7 SSE 19 24 10 13 1019.2 1018.6 0.0

Other formats

Comma delimited format used in spreadsheet applications
http://www.bom.gov.au/fwo/IDD60801/IDD60801.94255.axf

JavaScript Object Notation format (JSON) in row-major order
http://www.bom.gov.au/fwo/IDD60801/IDD60801.94255.json

Data quality

Most of these data are generated automatically and are frequently updated. Quality checks on data are not normally performed. It is possible for incorrect values to appear. Refer to information at About Latest Weather Observations and please check the disclaimer before using these data.